Buoy 32622

sailwx.info

Track history (hours):
 
Tides and Currents Weather Stations Pressure Air Temp Water Temp Dewpoint Dewpoint Depression Visibility Wind Speed Wind Dir Waves Ship Positions

Aadnyj

Last reported at 2016-Aug-27 11:00 UTC. Time now 2016-Aug-27 13:23 UTC.
Position S 03°40' W 109°30'.

Length 56 m.

Type: Towing. MMSI: 413600286.

Water temperature 23.0 ° C

Date/timePositionNaut miles runAvg speedWind from/ knotsBaromVisibWave heightAir tempDewpointWater temp
2016-Aug-27 11:00S 03°40' W 109°30'0 0.2 23.0
2016-Aug-27 09:00S 03°39' W 109°30'8 1.1 23.1
2016-Aug-27 02:00S 03°35' W 109°24'2 2.5 23.3
2016-Aug-27 01:00S 03°33' W 109°22'1 0.3 23.4
2016-Aug-26 22:00S 03°33' W 109°23'8 3.9 23.6
2016-Aug-26 20:00S 03°29' W 109°16'1 0.5 23.3
2016-Aug-26 17:00S 03°27' W 109°17'1 0.6 23.0
2016-Aug-26 15:00S 03°28' W 109°17'5 4.7 22.9
2016-Aug-26 14:00S 03°26' W 109°13'1 0.6 22.9
2016-Aug-26 12:00S 03°25' W 109°14'1 0.2 22.9
2016-Aug-26 09:00S 03°25' W 109°14'6 1.5 23.0
2016-Aug-26 05:00S 03°21' W 109°09'7 7.2 23.2
2016-Aug-26 04:00S 03°16' W 109°04'0 0.0 23.1
2016-Aug-26 01:00S 03°16' W 109°04'0 0.0 23.3
2016-Aug-25 23:00S 03°16' W 109°04'1 1.5 23.4
2016-Aug-25 22:00S 03°15' W 109°03'0 0.0 23.5
2016-Aug-25 21:00S 03°15' W 109°03'5 1.7 23.5
2016-Aug-25 18:00S 03°12' W 108°59'2 1.7 23.0
2016-Aug-25 17:00S 03°10' W 108°58'4 1.2 22.9
2016-Aug-25 14:00S 03°08' W 108°56'4 1.8 22.8
2016-Aug-25 12:00S 03°07' W 108°52'6 2.9 22.9
2016-Aug-25 10:00S 03°04' W 108°48'0 0.0 22.8
2016-Aug-25 08:00S 03°04' W 108°48'0 0.0 22.9
2016-Aug-25 05:00S 03°04' W 108°48'2 2.5 23.0
2016-Aug-25 04:00S 03°03' W 108°45'4 2.2 23.1
2016-Aug-25 02:00S 03°01' W 108°41'1 0.6 23.2
2016-Aug-25 01:00S 03°01' W 108°41'2 1.7 23.3
2016-Aug-25 00:00S 03°01' W 108°42'2 1.7 23.4
2016-Aug-24 23:00S 03°00' W 108°41'1 1.1 23.5
2016-Aug-24 22:00S 03°01' W 108°40'7 1.0 23.4
2016-Aug-24 15:00S 02°58' W 108°33'4 1.0 22.7
2016-Aug-24 11:00S 02°56' W 108°30'6 0.9 22.7
2016-Aug-24 05:00S 02°54' W 108°25'2 2.1 22.7
2016-Aug-24 04:00S 02°53' W 108°23'0 0.0 22.8
2016-Aug-24 02:00S 02°53' W 108°23'2 1.9 22.9
2016-Aug-24 01:00S 02°53' W 108°21'1 0.9 23.1
2016-Aug-24 00:00S 02°53' W 108°20'1 0.5 23.1
2016-Aug-23 23:00S 02°53' W 108°19'5 2.6 23.2
2016-Aug-23 21:00S 02°53' W 108°14'0 0.0 23.0
2016-Aug-23 17:00S 02°53' W 108°14'0 0.1 22.6
2016-Aug-23 16:00S 02°53' W 108°14'4 1.3 22.5
2016-Aug-23 13:00S 02°53' W 108°10'5 4.6 22.5
2016-Aug-23 12:00S 02°54' W 108°06'0 0.0 22.5
2016-Aug-23 10:00S 02°54' W 108°06'5 1.2 22.5
2016-Aug-23 06:00S 02°55' W 108°01'1 1.1 22.6
2016-Aug-23 05:00S 02°55' W 108°00'0 0.0 22.6
2016-Aug-23 04:00S 02°55' W 108°00'0 0.0 22.6
2016-Aug-23 03:00S 02°55' W 108°00'2 1.9 22.6
2016-Aug-23 02:00S 02°56' W 107°58'4 3.6 22.7
2016-Aug-23 01:00S 02°57' W 107°55'0 0.0 22.8
2016-Aug-23 00:00S 02°57' W 107°55'0 0.0 22.8
2016-Aug-22 23:00S 02°57' W 107°55'1 0.3 22.8
2016-Aug-22 21:00S 02°56' W 107°54'6 1.1 22.8
2016-Aug-22 16:00S 02°56' W 107°48'0 0.0 22.2
2016-Aug-22 15:00S 02°56' W 107°48'1 0.5 22.2
2016-Aug-22 13:00S 02°56' W 107°48'2 2.1 22.2
2016-Aug-22 12:00S 02°55' W 107°46'0 0.0 22.2
2016-Aug-22 10:00S 02°55' W 107°46'0 0.4 22.3
2016-Aug-22 09:00S 02°55' W 107°46'4 0.8 22.3
2016-Aug-22 04:00S 02°53' W 107°42'2 1.7 22.4
2016-Aug-22 03:00S 02°52' W 107°41'2 1.1 22.4
2016-Aug-22 01:00S 02°53' W 107°39'4 1.0 22.5
2016-Aug-21 21:00S 02°52' W 107°35'0 0.0 22.6
2016-Aug-21 17:00S 02°52' W 107°35'3 0.8 22.4
2016-Aug-21 13:00S 02°50' W 107°33'0 0.0 22.3
2016-Aug-21 12:00S 02°50' W 107°33'1 0.8 22.4
2016-Aug-21 11:00S 02°50' W 107°32'0 0.0 22.4
2016-Aug-21 09:00S 02°50' W 107°32'3 0.8 22.4
2016-Aug-21 05:00S 02°48' W 107°30'4 4.2 22.5
2016-Aug-21 04:00S 02°47' W 107°26'3 1.3 22.4
2016-Aug-21 02:00S 02°46' W 107°28'2 0.8 22.5
2016-Aug-21 00:00S 02°45' W 107°27'7 1.0 22.8
2016-Aug-20 17:00S 02°42' W 107°21'6 1.6 22.3
2016-Aug-20 13:00S 02°39' W 107°15'0 0.0 22.2
2016-Aug-20 12:00S 02°39' W 107°15'0 0.0 22.2
2016-Aug-20 10:00S 02°39' W 107°15'0 0.1 22.2
2016-Aug-20 09:00S 02°39' W 107°15'7 1.8 22.3
2016-Aug-20 05:00S 02°37' W 107°08'0 0.4 22.3
2016-Aug-20 04:00S 02°37' W 107°08'1 0.4 22.4
2016-Aug-20 01:00S 02°37' W 107°07'0 0.4 22.5
2016-Aug-20 00:00S 02°37' W 107°07'2 2.0 22.5
2016-Aug-19 23:00S 02°36' W 107°05'0 0.0 22.5
2016-Aug-19 22:00S 02°36' W 107°05'4 0.7 22.5
2016-Aug-19 16:00S 02°35' W 107°00'3 1.5 22.1
2016-Aug-19 14:00S 02°35' W 106°57'2 2.1 22.0
2016-Aug-19 13:00S 02°34' W 106°55'0 0.0 22.1
2016-Aug-19 11:00S 02°34' W 106°55'0 0.0 22.1
2016-Aug-19 09:00S 02°34' W 106°55'6 1.5 22.2
2016-Aug-19 05:00S 02°34' W 106°50'1 0.7 22.2
2016-Aug-19 04:00S 02°34' W 106°50'0 0.5 22.2
2016-Aug-19 03:00S 02°34' W 106°50'1 0.7 22.3
2016-Aug-19 01:00S 02°34' W 106°49'3 3.0 22.3
2016-Aug-19 00:00S 02°33' W 106°46'1 0.4 22.4
2016-Aug-18 22:00S 02°33' W 106°45'4 0.7 22.5
2016-Aug-18 16:00S 02°33' W 106°41'1 0.3 22.1
2016-Aug-18 13:00S 02°33' W 106°40'1 1.0 22.1
2016-Aug-18 12:00S 02°32' W 106°39'5 0.8 22.1
2016-Aug-18 05:00S 02°31' W 106°34'3 0.9 22.3
2016-Aug-18 02:00S 02°31' W 106°31'2 2.0 22.4
2016-Aug-18 01:00S 02°30' W 106°29'0 0.0 22.5
2016-Aug-17 23:00S 02°30' W 106°29'1 0.6 22.5
2016-Aug-17 22:00S 02°30' W 106°30'8 4.0 22.5
2016-Aug-17 20:00S 02°29' W 106°22'5 0.7 22.4
2016-Aug-17 13:00S 02°29' W 106°17'   22.2
Track history (hours):
 
Tides and Currents Weather Stations Pressure Air Temp Water Temp Dewpoint Dewpoint Depression Visibility Wind Speed Wind Dir Waves Ship Positions

Aadnyj

Last reported at 2016-Aug-27 11:00 UTC. Time now 2016-Aug-27 13:23 UTC.
Position S 03°40' W 109°30'.

Length 56 m.

Type: Towing. MMSI: 413600286.

Water temperature 23.0 ° C

Date/timePositionNaut miles runAvg speedWind from/ knotsBaromVisibWave heightAir tempDewpointWater temp
2016-Aug-27 11:00S 03°40' W 109°30'0 0.2 23.0
2016-Aug-27 09:00S 03°39' W 109°30'8 1.1 23.1
2016-Aug-27 02:00S 03°35' W 109°24'2 2.5 23.3
2016-Aug-27 01:00S 03°33' W 109°22'1 0.3 23.4
2016-Aug-26 22:00S 03°33' W 109°23'8 3.9 23.6
2016-Aug-26 20:00S 03°29' W 109°16'1 0.5 23.3
2016-Aug-26 17:00S 03°27' W 109°17'1 0.6 23.0
2016-Aug-26 15:00S 03°28' W 109°17'5 4.7 22.9
2016-Aug-26 14:00S 03°26' W 109°13'1 0.6 22.9
2016-Aug-26 12:00S 03°25' W 109°14'1 0.2 22.9
2016-Aug-26 09:00S 03°25' W 109°14'6 1.5 23.0
2016-Aug-26 05:00S 03°21' W 109°09'7 7.2 23.2
2016-Aug-26 04:00S 03°16' W 109°04'0 0.0 23.1
2016-Aug-26 01:00S 03°16' W 109°04'0 0.0 23.3
2016-Aug-25 23:00S 03°16' W 109°04'1 1.5 23.4
2016-Aug-25 22:00S 03°15' W 109°03'0 0.0 23.5
2016-Aug-25 21:00S 03°15' W 109°03'5 1.7 23.5
2016-Aug-25 18:00S 03°12' W 108°59'2 1.7 23.0
2016-Aug-25 17:00S 03°10' W 108°58'4 1.2 22.9
2016-Aug-25 14:00S 03°08' W 108°56'4 1.8 22.8
2016-Aug-25 12:00S 03°07' W 108°52'6 2.9 22.9
2016-Aug-25 10:00S 03°04' W 108°48'0 0.0 22.8
2016-Aug-25 08:00S 03°04' W 108°48'0 0.0 22.9
2016-Aug-25 05:00S 03°04' W 108°48'2 2.5 23.0
2016-Aug-25 04:00S 03°03' W 108°45'4 2.2 23.1
2016-Aug-25 02:00S 03°01' W 108°41'1 0.6 23.2
2016-Aug-25 01:00S 03°01' W 108°41'2 1.7 23.3
2016-Aug-25 00:00S 03°01' W 108°42'2 1.7 23.4
2016-Aug-24 23:00S 03°00' W 108°41'1 1.1 23.5
2016-Aug-24 22:00S 03°01' W 108°40'7 1.0 23.4
2016-Aug-24 15:00S 02°58' W 108°33'4 1.0 22.7
2016-Aug-24 11:00S 02°56' W 108°30'6 0.9 22.7
2016-Aug-24 05:00S 02°54' W 108°25'2 2.1 22.7
2016-Aug-24 04:00S 02°53' W 108°23'0 0.0 22.8
2016-Aug-24 02:00S 02°53' W 108°23'2 1.9 22.9
2016-Aug-24 01:00S 02°53' W 108°21'1 0.9 23.1
2016-Aug-24 00:00S 02°53' W 108°20'1 0.5 23.1
2016-Aug-23 23:00S 02°53' W 108°19'5 2.6 23.2
2016-Aug-23 21:00S 02°53' W 108°14'0 0.0 23.0
2016-Aug-23 17:00S 02°53' W 108°14'0 0.1 22.6
2016-Aug-23 16:00S 02°53' W 108°14'4 1.3 22.5
2016-Aug-23 13:00S 02°53' W 108°10'5 4.6 22.5
2016-Aug-23 12:00S 02°54' W 108°06'0 0.0 22.5
2016-Aug-23 10:00S 02°54' W 108°06'5 1.2 22.5
2016-Aug-23 06:00S 02°55' W 108°01'1 1.1 22.6
2016-Aug-23 05:00S 02°55' W 108°00'0 0.0 22.6
2016-Aug-23 04:00S 02°55' W 108°00'0 0.0 22.6
2016-Aug-23 03:00S 02°55' W 108°00'2 1.9 22.6
2016-Aug-23 02:00S 02°56' W 107°58'4 3.6 22.7
2016-Aug-23 01:00S 02°57' W 107°55'0 0.0 22.8
2016-Aug-23 00:00S 02°57' W 107°55'0 0.0 22.8
2016-Aug-22 23:00S 02°57' W 107°55'1 0.3 22.8
2016-Aug-22 21:00S 02°56' W 107°54'6 1.1 22.8
2016-Aug-22 16:00S 02°56' W 107°48'0 0.0 22.2
2016-Aug-22 15:00S 02°56' W 107°48'1 0.5 22.2
2016-Aug-22 13:00S 02°56' W 107°48'2 2.1 22.2
2016-Aug-22 12:00S 02°55' W 107°46'0 0.0 22.2
2016-Aug-22 10:00S 02°55' W 107°46'0 0.4 22.3
2016-Aug-22 09:00S 02°55' W 107°46'4 0.8 22.3
2016-Aug-22 04:00S 02°53' W 107°42'2 1.7 22.4
2016-Aug-22 03:00S 02°52' W 107°41'2 1.1 22.4
2016-Aug-22 01:00S 02°53' W 107°39'4 1.0 22.5
2016-Aug-21 21:00S 02°52' W 107°35'0 0.0 22.6
2016-Aug-21 17:00S 02°52' W 107°35'3 0.8 22.4
2016-Aug-21 13:00S 02°50' W 107°33'0 0.0 22.3
2016-Aug-21 12:00S 02°50' W 107°33'1 0.8 22.4
2016-Aug-21 11:00S 02°50' W 107°32'0 0.0 22.4
2016-Aug-21 09:00S 02°50' W 107°32'3 0.8 22.4
2016-Aug-21 05:00S 02°48' W 107°30'4 4.2 22.5
2016-Aug-21 04:00S 02°47' W 107°26'3 1.3 22.4
2016-Aug-21 02:00S 02°46' W 107°28'2 0.8 22.5
2016-Aug-21 00:00S 02°45' W 107°27'7 1.0 22.8
2016-Aug-20 17:00S 02°42' W 107°21'6 1.6 22.3
2016-Aug-20 13:00S 02°39' W 107°15'0 0.0 22.2
2016-Aug-20 12:00S 02°39' W 107°15'0 0.0 22.2
2016-Aug-20 10:00S 02°39' W 107°15'0 0.1 22.2
2016-Aug-20 09:00S 02°39' W 107°15'7 1.8 22.3
2016-Aug-20 05:00S 02°37' W 107°08'0 0.4 22.3
2016-Aug-20 04:00S 02°37' W 107°08'1 0.4 22.4
2016-Aug-20 01:00S 02°37' W 107°07'0 0.4 22.5
2016-Aug-20 00:00S 02°37' W 107°07'2 2.0 22.5
2016-Aug-19 23:00S 02°36' W 107°05'0 0.0 22.5
2016-Aug-19 22:00S 02°36' W 107°05'4 0.7 22.5
2016-Aug-19 16:00S 02°35' W 107°00'3 1.5 22.1
2016-Aug-19 14:00S 02°35' W 106°57'2 2.1 22.0
2016-Aug-19 13:00S 02°34' W 106°55'0 0.0 22.1
2016-Aug-19 11:00S 02°34' W 106°55'0 0.0 22.1
2016-Aug-19 09:00S 02°34' W 106°55'6 1.5 22.2
2016-Aug-19 05:00S 02°34' W 106°50'1 0.7 22.2
2016-Aug-19 04:00S 02°34' W 106°50'0 0.5 22.2
2016-Aug-19 03:00S 02°34' W 106°50'1 0.7 22.3
2016-Aug-19 01:00S 02°34' W 106°49'3 3.0 22.3
2016-Aug-19 00:00S 02°33' W 106°46'1 0.4 22.4
2016-Aug-18 22:00S 02°33' W 106°45'4 0.7 22.5
2016-Aug-18 16:00S 02°33' W 106°41'1 0.3 22.1
2016-Aug-18 13:00S 02°33' W 106°40'1 1.0 22.1
2016-Aug-18 12:00S 02°32' W 106°39'5 0.8 22.1
2016-Aug-18 05:00S 02°31' W 106°34'3 0.9 22.3
2016-Aug-18 02:00S 02°31' W 106°31'2 2.0 22.4
2016-Aug-18 01:00S 02°30' W 106°29'0 0.0 22.5
2016-Aug-17 23:00S 02°30' W 106°29'1 0.6 22.5
2016-Aug-17 22:00S 02°30' W 106°30'8 4.0 22.5
2016-Aug-17 20:00S 02°29' W 106°22'5 0.7 22.4
2016-Aug-17 13:00S 02°29' W 106°17'   22.2

Dump ship's entire track history